createdAt,value
2022-09-26T00:01:11.087Z,66.44
2022-09-26T00:03:38.405Z,66.54
2022-09-26T00:06:07.579Z,66.27
2022-09-26T00:08:35.924Z,66.38
2022-09-26T00:11:05.026Z,66.38
2022-09-26T00:13:34.302Z,65.75
2022-09-26T00:16:01.583Z,65.92
2022-09-26T00:18:28.139Z,65.88
2022-09-26T00:21:05.940Z,66.05
2022-09-26T00:23:32.601Z,65.81
2022-09-26T00:25:59.691Z,66.14
2022-09-26T00:28:27.478Z,65.82
2022-09-26T00:30:54.644Z,66.00
2022-09-26T00:33:21.319Z,65.44
2022-09-26T00:35:52.111Z,65.53
2022-09-26T00:38:19.552Z,65.23
2022-09-26T00:40:47.119Z,64.90
2022-09-26T00:43:28.656Z,65.35
2022-09-26T00:46:05.101Z,65.13
2022-09-26T00:48:34.415Z,64.76
2022-09-26T00:51:01.594Z,64.49
2022-09-26T00:53:35.772Z,65.06
2022-09-26T00:56:07.568Z,64.88
2022-09-26T00:58:41.522Z,64.60
2022-09-26T01:01:09.361Z,64.90
2022-09-26T01:03:38.997Z,64.80
2022-09-26T01:06:05.843Z,64.44
2022-09-26T01:08:38.537Z,64.54
2022-09-26T01:11:06.070Z,64.89
2022-09-26T01:13:36.597Z,65.07
2022-09-26T01:16:03.543Z,64.66
2022-09-26T01:18:30.717Z,64.72
2022-09-26T01:21:42.943Z,64.84
2022-09-26T01:24:13.360Z,64.90
2022-09-26T01:26:50.345Z,65.10
2022-09-26T01:29:44.432Z,65.06
2022-09-26T01:32:48.365Z,65.10
2022-09-26T01:35:42.648Z,65.07
2022-09-26T01:38:35.708Z,65.17
2022-09-26T01:41:14.373Z,65.48
2022-09-26T01:43:41.568Z,65.96
2022-09-26T01:46:21.901Z,66.48
2022-09-26T01:48:55.453Z,66.45
2022-09-26T01:51:39.789Z,66.55
2022-09-26T01:54:12.585Z,66.06
2022-09-26T01:56:42.827Z,66.53
2022-09-26T01:59:28.110Z,66.60
2022-09-26T02:02:03.207Z,66.46
2022-09-26T02:04:38.839Z,66.71
2022-09-26T02:07:34.110Z,66.29
2022-09-26T02:10:07.713Z,66.96
2022-09-26T02:12:39.528Z,67.01
2022-09-26T02:15:09.354Z,67.08
2022-09-26T02:17:38.232Z,67.26
2022-09-26T02:20:38.068Z,67.63
2022-09-26T02:23:05.330Z,67.82
2022-09-26T02:25:33.096Z,67.88
2022-09-26T02:28:00.138Z,67.26
2022-09-26T02:30:27.083Z,67.42
2022-09-26T02:32:53.794Z,66.90
2022-09-26T02:35:42.167Z,66.81
2022-09-26T02:38:09.929Z,67.26
2022-09-26T02:41:13.927Z,68.09
2022-09-26T02:44:02.536Z,68.98
2022-09-26T02:47:06.403Z,68.89
2022-09-26T02:49:47.761Z,69.98
2022-09-26T02:52:39.068Z,69.95
2022-09-26T02:55:26.514Z,69.76
2022-09-26T02:58:13.161Z,69.66
2022-09-26T03:01:07.634Z,69.77
2022-09-26T03:03:40.488Z,70.48
2022-09-26T03:06:10.889Z,70.60
2022-09-26T03:08:44.377Z,71.14
2022-09-26T03:11:15.927Z,70.94
2022-09-26T03:13:44.956Z,70.51
2022-09-26T03:16:14.217Z,70.85
2022-09-26T03:18:54.091Z,70.94
2022-09-26T03:21:22.940Z,71.17
2022-09-26T03:23:50.332Z,71.63
2022-09-26T03:26:24.554Z,72.05
2022-09-26T03:28:58.495Z,72.08
2022-09-26T03:31:28.245Z,72.16
2022-09-26T03:34:00.526Z,72.05
2022-09-26T03:36:28.317Z,72.29
2022-09-26T03:38:54.937Z,72.62
2022-09-26T03:41:50.898Z,71.96
2022-09-26T03:44:25.157Z,71.86
2022-09-26T03:47:04.576Z,71.63
2022-09-26T03:49:34.956Z,71.17
2022-09-26T03:52:02.332Z,70.68
2022-09-26T03:54:29.523Z,70.73
2022-09-26T03:56:57.175Z,70.54
2022-09-26T03:59:23.863Z,70.39
2022-09-26T04:01:51.381Z,69.91
2022-09-26T04:04:18.070Z,70.21
2022-09-26T04:06:45.084Z,70.77
2022-09-26T04:09:17.075Z,69.94
2022-09-26T04:11:47.704Z,70.00
2022-09-26T04:14:14.245Z,70.11
2022-09-26T04:16:42.145Z,70.16
2022-09-26T04:19:16.380Z,69.75
2022-09-26T04:21:43.120Z,70.09
2022-09-26T04:24:15.242Z,70.13
2022-09-26T04:26:43.982Z,70.05
2022-09-26T04:29:10.997Z,70.06
2022-09-26T04:32:06.863Z,70.01
2022-09-26T04:34:52.080Z,70.29
2022-09-26T04:37:20.944Z,70.18
2022-09-26T04:39:48.085Z,70.10
2022-09-26T04:42:14.965Z,70.24
2022-09-26T04:44:41.675Z,70.23
2022-09-26T04:47:08.271Z,70.58
2022-09-26T04:49:55.149Z,71.15
2022-09-26T04:52:22.018Z,71.90
2022-09-26T04:54:48.640Z,71.45
2022-09-26T04:57:19.582Z,71.53
2022-09-26T04:59:46.569Z,72.13
2022-09-26T05:02:13.679Z,72.25
2022-09-26T05:04:42.076Z,71.82
2022-09-26T05:07:08.632Z,71.82
2022-09-26T05:09:36.304Z,72.03
2022-09-26T05:12:10.297Z,71.93
2022-09-26T05:14:38.340Z,72.50
2022-09-26T05:17:05.123Z,72.22
2022-09-26T05:19:32.805Z,72.31
2022-09-26T05:22:17.939Z,72.73
2022-09-26T05:25:03.249Z,71.90
2022-09-26T05:27:30.618Z,71.46
2022-09-26T05:29:57.258Z,71.01
2022-09-26T05:32:25.492Z,70.43
2022-09-26T05:34:52.087Z,70.21
2022-09-26T05:37:21.169Z,70.63
2022-09-26T05:40:07.215Z,70.22
2022-09-26T05:42:38.409Z,70.33
2022-09-26T05:45:05.942Z,71.06
2022-09-26T05:47:36.381Z,71.17
2022-09-26T05:50:09.933Z,71.65
2022-09-26T05:52:38.317Z,71.51
2022-09-26T05:55:05.735Z,71.42
2022-09-26T05:57:58.848Z,71.01
2022-09-26T06:00:35.561Z,70.68
2022-09-26T06:03:05.016Z,70.10
2022-09-26T06:05:42.013Z,70.02
2022-09-26T06:08:12.641Z,69.30
2022-09-26T06:10:44.419Z,68.16
2022-09-26T06:13:15.225Z,68.42
2022-09-26T06:15:49.890Z,67.88
2022-09-26T06:18:16.722Z,66.97
2022-09-26T06:20:43.185Z,66.72
2022-09-26T06:23:11.075Z,66.20
2022-09-26T06:25:38.984Z,65.42
2022-09-26T06:28:06.256Z,65.59
2022-09-26T06:30:33.166Z,64.12
2022-09-26T06:33:17.687Z,63.30
2022-09-26T06:36:08.035Z,63.44
2022-09-26T06:38:37.418Z,61.93
2022-09-26T06:41:19.946Z,61.96
2022-09-26T06:43:47.381Z,62.04
2022-09-26T06:46:32.865Z,62.59
2022-09-26T06:49:22.354Z,62.68
2022-09-26T06:52:02.490Z,63.04
2022-09-26T06:54:29.113Z,62.81
2022-09-26T06:56:56.101Z,62.18
2022-09-26T06:59:23.214Z,62.72
2022-09-26T07:02:10.461Z,62.14
2022-09-26T07:04:54.584Z,61.22
2022-09-26T07:07:41.876Z,61.25
2022-09-26T07:10:14.633Z,61.65
2022-09-26T07:12:49.541Z,61.14
2022-09-26T07:15:18.588Z,61.47
2022-09-26T07:17:47.136Z,61.80
2022-09-26T07:20:40.148Z,61.73
2022-09-26T07:23:29.792Z,61.93
2022-09-26T07:25:56.644Z,62.18
2022-09-26T07:28:24.158Z,62.74
2022-09-26T07:30:57.148Z,61.94
2022-09-26T07:33:40.167Z,62.33
2022-09-26T07:36:09.681Z,62.33
2022-09-26T07:38:37.283Z,61.78
2022-09-26T07:41:04.967Z,62.38
2022-09-26T07:44:16.923Z,62.82
2022-09-26T07:46:39.200Z,62.62
2022-09-26T07:49:24.519Z,62.50
2022-09-26T07:52:15.184Z,62.55
2022-09-26T07:55:01.639Z,62.31
2022-09-26T07:57:42.991Z,62.20
2022-09-26T08:00:24.036Z,61.42
2022-09-26T08:03:01.659Z,62.16
2022-09-26T08:05:29.872Z,61.85
2022-09-26T08:07:57.311Z,61.30
2022-09-26T08:11:04.281Z,60.72
2022-09-26T08:13:51.306Z,61.06
2022-09-26T08:16:47.095Z,60.48
2022-09-26T08:19:17.278Z,60.32
2022-09-26T08:21:44.582Z,60.24
2022-09-26T08:24:11.284Z,60.46
2022-09-26T08:26:44.077Z,60.04
2022-09-26T08:29:34.096Z,59.81
2022-09-26T08:32:03.605Z,59.18
2022-09-26T08:34:35.119Z,58.46
2022-09-26T08:37:28.632Z,56.69
2022-09-26T08:40:18.478Z,55.32
2022-09-26T08:43:20.203Z,54.46
2022-09-26T08:46:55.626Z,52.36
2022-09-26T08:49:42.427Z,50.82
2022-09-26T08:52:29.581Z,50.76
2022-09-26T08:55:01.343Z,50.85
2022-09-26T08:57:37.362Z,51.04
2022-09-26T09:00:26.037Z,50.86
2022-09-26T09:03:17.609Z,51.04
2022-09-26T09:05:50.209Z,51.18
2022-09-26T09:08:22.792Z,51.49
2022-09-26T09:11:32.053Z,51.91
2022-09-26T09:14:17.498Z,51.75
2022-09-26T09:17:32.277Z,51.67
2022-09-26T09:20:38.531Z,52.27
2022-09-26T09:24:03.184Z,51.64
2022-09-26T09:29:56.615Z,50.09
2022-09-26T09:33:02.943Z,38.96
2022-09-26T09:35:52.072Z,32.92
2022-09-26T09:38:34.613Z,27.44
2022-09-26T09:41:30.112Z,23.79
2022-09-26T09:44:00.561Z,23.53
2022-09-26T09:46:32.183Z,21.74
2022-09-26T09:49:07.957Z,25.78
2022-09-26T09:52:12.207Z,29.68
2022-09-26T09:55:00.633Z,31.51
2022-09-26T09:57:45.361Z,33.22
2022-09-26T10:00:12.903Z,34.69
2022-09-26T10:02:50.439Z,36.79
2022-09-26T10:05:39.357Z,35.67
2022-09-26T10:08:11.173Z,34.95
2022-09-26T10:11:19.391Z,32.69
2022-09-26T10:14:07.635Z,33.85
2022-09-26T10:17:09.023Z,34.71
2022-09-26T10:19:43.356Z,33.52
2022-09-26T10:22:32.524Z,34.44
2022-09-26T10:25:03.815Z,36.63
2022-09-26T10:27:40.996Z,38.93
2022-09-26T10:30:18.626Z,39.70
2022-09-26T10:32:54.030Z,40.52
2022-09-26T10:35:44.896Z,39.86
2022-09-26T10:38:24.747Z,35.34
2022-09-26T10:41:03.548Z,32.05
2022-09-26T10:43:37.896Z,28.63
2022-09-26T10:46:23.550Z,27.52
2022-09-26T10:49:14.853Z,25.51
2022-09-26T10:52:16.012Z,21.46
2022-09-26T10:55:06.773Z,20.88
2022-09-26T10:57:40.740Z,16.84
2022-09-26T11:00:08.128Z,19.66
2022-09-26T11:02:36.272Z,17.51
2022-09-26T11:05:24.605Z,16.24
2022-09-26T11:08:15.023Z,15.05
2022-09-26T11:11:07.910Z,13.89
2022-09-26T11:14:04.997Z,14.58
2022-09-26T11:16:44.151Z,17.08
2022-09-26T11:19:22.307Z,17.00
2022-09-26T11:22:08.528Z,14.72
2022-09-26T11:24:51.479Z,13.64
2022-09-26T11:27:48.518Z,13.18
2022-09-26T11:30:23.054Z,11.94
2022-09-26T11:33:00.326Z,13.15
2022-09-26T11:36:18.064Z,15.25
2022-09-26T11:38:48.553Z,17.23
2022-09-26T11:41:36.505Z,17.97
2022-09-26T11:44:43.276Z,16.18
2022-09-26T11:47:54.156Z,15.28
2022-09-26T11:50:41.797Z,13.76
2022-09-26T11:53:42.569Z,13.94
2022-09-26T11:56:40.118Z,13.85
2022-09-26T11:59:25.431Z,13.88
2022-09-26T12:02:08.150Z,13.72
2022-09-26T12:05:14.068Z,13.85
2022-09-26T12:07:52.794Z,14.13
2022-09-26T12:10:26.247Z,13.36
2022-09-26T12:13:08.237Z,14.11
2022-09-26T12:16:19.736Z,15.64
2022-09-26T12:19:10.487Z,18.96
2022-09-26T12:22:07.375Z,21.24
2022-09-26T12:25:09.731Z,22.82
2022-09-26T12:27:45.531Z,23.27
2022-09-26T12:30:15.675Z,23.82
2022-09-26T12:33:00.083Z,24.06
2022-09-26T12:36:09.728Z,24.36
2022-09-26T12:39:12.320Z,25.79
2022-09-26T12:42:03.525Z,27.16
2022-09-26T12:44:45.231Z,28.08
2022-09-26T12:47:33.517Z,28.94
2022-09-26T12:50:14.638Z,30.94
2022-09-26T12:53:10.487Z,33.16
2022-09-26T12:55:46.718Z,34.90
2022-09-26T12:58:25.383Z,36.84
2022-09-26T13:01:17.169Z,37.78
2022-09-26T13:03:49.893Z,39.85
2022-09-26T13:06:49.075Z,37.33
2022-09-26T13:10:02.956Z,38.11
2022-09-26T13:12:54.306Z,37.52
2022-09-26T13:15:35.368Z,39.39
2022-09-26T13:18:12.698Z,39.11
2022-09-26T13:20:40.770Z,39.52
2022-09-26T13:23:25.297Z,38.47
2022-09-26T13:26:14.484Z,39.51
2022-09-26T13:29:15.726Z,39.90
2022-09-26T13:31:55.828Z,40.86
2022-09-26T13:34:28.500Z,41.05
2022-09-26T13:37:05.264Z,39.96
2022-09-26T13:39:46.442Z,38.95
2022-09-26T13:42:22.347Z,39.18
2022-09-26T13:45:07.318Z,39.52
2022-09-26T13:47:45.627Z,40.09
2022-09-26T13:50:32.994Z,41.22
2022-09-26T13:53:28.929Z,40.66
2022-09-26T13:56:33.952Z,41.40
2022-09-26T13:59:12.966Z,42.73
2022-09-26T14:02:34.653Z,42.40
2022-09-26T14:05:01.131Z,43.53
2022-09-26T14:07:58.440Z,42.65
2022-09-26T14:10:24.901Z,42.04
2022-09-26T14:13:10.934Z,42.30
2022-09-26T14:15:46.773Z,41.85
2022-09-26T14:18:30.262Z,42.72
2022-09-26T14:21:07.013Z,41.63
2022-09-26T14:23:36.751Z,41.60
2022-09-26T14:26:08.388Z,42.03
2022-09-26T14:28:37.328Z,42.48
2022-09-26T14:31:17.232Z,42.89
2022-09-26T14:33:45.607Z,43.23
2022-09-26T14:36:32.363Z,42.37
2022-09-26T14:38:59.446Z,42.45
2022-09-26T14:41:33.302Z,42.78
2022-09-26T14:44:15.915Z,42.07
2022-09-26T14:46:43.053Z,41.86
2022-09-26T14:49:20.973Z,41.63
2022-09-26T14:51:51.664Z,41.81
2022-09-26T14:54:24.302Z,42.03
2022-09-26T14:57:05.257Z,42.30
2022-09-26T14:59:34.836Z,42.78
2022-09-26T15:02:14.346Z,42.21
2022-09-26T15:04:42.445Z,42.20
2022-09-26T15:07:17.690Z,42.83
2022-09-26T15:09:59.837Z,42.98
2022-09-26T15:12:39.867Z,43.30
2022-09-26T15:15:17.276Z,43.06
2022-09-26T15:17:56.480Z,43.29
2022-09-26T15:20:25.355Z,43.28
2022-09-26T15:22:56.962Z,43.48
2022-09-26T15:25:31.488Z,43.53
2022-09-26T15:27:59.871Z,42.48
2022-09-26T15:30:37.272Z,42.88
2022-09-26T15:33:04.436Z,43.36
2022-09-26T15:35:32.477Z,43.43
2022-09-26T15:38:01.220Z,43.91
2022-09-26T15:40:30.713Z,43.97
2022-09-26T15:43:11.451Z,44.40
2022-09-26T15:45:46.996Z,44.15
2022-09-26T15:48:19.615Z,45.10
2022-09-26T15:50:50.420Z,44.73
2022-09-26T15:53:37.688Z,44.97
2022-09-26T15:56:16.754Z,44.63
2022-09-26T15:58:48.364Z,45.38
2022-09-26T16:01:17.488Z,45.52
2022-09-26T16:04:00.400Z,44.99
2022-09-26T16:06:34.299Z,45.03
2022-09-26T16:09:11.444Z,45.15
2022-09-26T16:11:51.272Z,45.13
2022-09-26T16:14:41.439Z,45.29
2022-09-26T16:17:38.645Z,45.41
2022-09-26T16:20:11.568Z,45.49
2022-09-26T16:22:51.132Z,46.06
2022-09-26T16:25:20.782Z,46.95
2022-09-26T16:27:50.052Z,47.30
2022-09-26T16:30:25.694Z,47.04
2022-09-26T16:32:55.089Z,46.92
2022-09-26T16:35:29.511Z,47.29
2022-09-26T16:38:01.727Z,48.03
2022-09-26T16:40:34.365Z,48.15
2022-09-26T16:43:13.994Z,48.39
2022-09-26T16:45:54.463Z,49.23
2022-09-26T16:48:39.612Z,49.90
2022-09-26T16:51:18.410Z,50.10
2022-09-26T16:53:53.344Z,50.24
2022-09-26T16:56:23.253Z,50.71
2022-09-26T16:59:03.207Z,50.78
2022-09-26T17:01:48.617Z,51.20
2022-09-26T17:04:22.157Z,51.04
2022-09-26T17:06:48.816Z,51.42
2022-09-26T17:09:18.487Z,52.23
2022-09-26T17:11:47.861Z,52.57
2022-09-26T17:14:18.430Z,52.53
2022-09-26T17:16:47.025Z,52.07
2022-09-26T17:19:16.510Z,51.88
2022-09-26T17:21:44.069Z,52.20
2022-09-26T17:24:28.673Z,52.09
2022-09-26T17:27:01.632Z,52.25
2022-09-26T17:29:34.264Z,52.11
2022-09-26T17:32:08.907Z,52.07
2022-09-26T17:34:36.773Z,52.65
2022-09-26T17:37:03.931Z,52.68
2022-09-26T17:39:30.879Z,52.72
2022-09-26T17:41:59.186Z,53.25
2022-09-26T17:44:26.303Z,54.67
2022-09-26T17:46:55.708Z,54.97
2022-09-26T17:49:25.227Z,55.91
2022-09-26T17:51:55.862Z,56.43
2022-09-26T17:54:40.771Z,58.14
2022-09-26T17:57:14.140Z,58.71
2022-09-26T17:59:42.186Z,57.81
2022-09-26T18:02:31.748Z,58.11
2022-09-26T18:05:06.027Z,57.64
2022-09-26T18:07:44.691Z,57.87
2022-09-26T18:10:21.501Z,57.63
2022-09-26T18:12:56.098Z,57.88
2022-09-26T18:15:23.598Z,57.69
2022-09-26T18:17:53.174Z,57.91
2022-09-26T18:20:23.057Z,58.41
2022-09-26T18:22:52.615Z,59.38
2022-09-26T18:25:25.294Z,60.28
2022-09-26T18:27:55.045Z,60.77
2022-09-26T18:30:23.738Z,61.17
2022-09-26T18:32:55.003Z,60.48
2022-09-26T18:35:27.171Z,60.80
2022-09-26T18:37:55.817Z,61.18
2022-09-26T18:40:28.719Z,62.34
2022-09-26T18:42:58.088Z,62.81
2022-09-26T18:45:35.880Z,63.87
2022-09-26T18:48:19.273Z,64.34
2022-09-26T18:50:46.018Z,63.88
2022-09-26T18:53:14.355Z,64.03
2022-09-26T18:55:59.824Z,63.71
2022-09-26T18:58:27.835Z,63.99
2022-09-26T19:01:07.446Z,63.51
2022-09-26T19:03:37.302Z,63.97
2022-09-26T19:06:08.614Z,64.22
2022-09-26T19:08:45.025Z,63.64
2022-09-26T19:11:17.801Z,64.18
2022-09-26T19:13:47.298Z,64.37
2022-09-26T19:16:13.989Z,64.28
2022-09-26T19:18:41.137Z,63.18
2022-09-26T19:21:18.549Z,62.54
2022-09-26T19:23:46.822Z,62.41
2022-09-26T19:26:37.847Z,62.09
2022-09-26T19:29:11.982Z,62.72
2022-09-26T19:31:39.892Z,61.38
2022-09-26T19:34:06.665Z,60.85
2022-09-26T19:36:33.458Z,60.89
2022-09-26T19:39:00.557Z,61.12
2022-09-26T19:41:27.501Z,61.56
2022-09-26T19:43:54.398Z,61.11
2022-09-26T19:46:27.440Z,60.58
2022-09-26T19:48:54.282Z,59.92
2022-09-26T19:51:21.249Z,59.70
2022-09-26T19:53:48.116Z,59.52
2022-09-26T19:56:14.794Z,59.70
2022-09-26T19:58:41.540Z,59.63
2022-09-26T20:01:16.516Z,59.67
2022-09-26T20:03:44.882Z,59.82
2022-09-26T20:06:24.523Z,59.54
2022-09-26T20:08:56.401Z,58.95
2022-09-26T20:11:27.079Z,58.07
2022-09-26T20:14:12.373Z,59.22
2022-09-26T20:16:42.169Z,59.44
2022-09-26T20:19:14.737Z,59.66
2022-09-26T20:21:41.564Z,59.04
2022-09-26T20:24:16.445Z,58.50
2022-09-26T20:26:43.415Z,59.17
2022-09-26T20:29:15.036Z,59.79
2022-09-26T20:31:44.460Z,59.17
2022-09-26T20:34:11.551Z,58.87
2022-09-26T20:36:43.449Z,59.04
2022-09-26T20:39:24.245Z,58.93
2022-09-26T20:41:51.768Z,60.88
2022-09-26T20:44:24.480Z,60.93
2022-09-26T20:46:56.196Z,60.44
2022-09-26T20:49:33.384Z,60.81
2022-09-26T20:52:00.967Z,60.04
2022-09-26T20:54:32.578Z,59.66
2022-09-26T20:57:01.230Z,59.91
2022-09-26T20:59:28.640Z,59.69
2022-09-26T21:01:57.276Z,60.40
2022-09-26T21:04:31.172Z,62.17
2022-09-26T21:06:58.131Z,60.79
2022-09-26T21:09:24.765Z,60.31
2022-09-26T21:11:51.427Z,60.36
2022-09-26T21:14:19.027Z,60.77
2022-09-26T21:16:51.405Z,61.10
2022-09-26T21:19:24.135Z,59.52
2022-09-26T21:22:02.415Z,60.72
2022-09-26T21:24:42.264Z,60.87
2022-09-26T21:27:13.098Z,60.93
2022-09-26T21:29:41.197Z,60.64
2022-09-26T21:32:14.271Z,60.40
2022-09-26T21:34:41.391Z,60.72
2022-09-26T21:37:10.040Z,61.72
2022-09-26T21:39:38.934Z,63.13
2022-09-26T21:42:07.061Z,63.58
2022-09-26T21:44:46.045Z,64.80
2022-09-26T21:47:12.727Z,65.18
2022-09-26T21:49:39.467Z,65.99
2022-09-26T21:52:33.853Z,65.75
2022-09-26T21:55:01.570Z,66.31
2022-09-26T21:57:32.928Z,65.96
2022-09-26T22:00:00.339Z,65.52
2022-09-26T22:02:27.886Z,65.13
2022-09-26T22:04:54.562Z,66.29
2022-09-26T22:07:21.320Z,66.08
2022-09-26T22:09:47.921Z,67.45
2022-09-26T22:12:24.562Z,67.69
2022-09-26T22:14:51.517Z,67.40
2022-09-26T22:17:18.653Z,68.10
2022-09-26T22:19:45.466Z,67.88
2022-09-26T22:22:12.107Z,68.18
2022-09-26T22:24:38.831Z,68.16
2022-09-26T22:27:05.727Z,68.16
2022-09-26T22:29:32.749Z,68.21
2022-09-26T22:31:59.456Z,69.15
2022-09-26T22:34:26.726Z,68.35
2022-09-26T22:36:53.440Z,68.56
2022-09-26T22:39:22.428Z,67.94
2022-09-26T22:41:49.079Z,67.61
2022-09-26T22:44:15.769Z,68.52
2022-09-26T22:46:42.546Z,68.71
2022-09-26T22:49:09.205Z,68.59
2022-09-26T22:51:35.846Z,68.87
2022-09-26T22:54:02.644Z,68.82
2022-09-26T22:56:29.344Z,69.08
2022-09-26T22:58:56.139Z,68.85
2022-09-26T23:01:27.873Z,68.01
2022-09-26T23:03:56.629Z,68.13
2022-09-26T23:06:24.140Z,68.69
2022-09-26T23:08:51.044Z,68.33
2022-09-26T23:11:18.412Z,67.80
2022-09-26T23:13:45.919Z,68.63
2022-09-26T23:16:17.788Z,68.54
2022-09-26T23:18:44.696Z,68.11
2022-09-26T23:21:12.713Z,68.29
2022-09-26T23:23:41.515Z,68.60
2022-09-26T23:26:13.917Z,68.82
2022-09-26T23:28:40.894Z,68.77
2022-09-26T23:31:11.249Z,68.03
2022-09-26T23:33:38.423Z,68.45
2022-09-26T23:36:06.445Z,68.38
2022-09-26T23:38:33.832Z,68.58
2022-09-26T23:41:00.472Z,67.95
2022-09-26T23:43:27.288Z,68.47
2022-09-26T23:45:54.037Z,68.12
2022-09-26T23:48:20.706Z,68.21
2022-09-26T23:50:47.575Z,68.18
2022-09-26T23:53:15.249Z,68.63
2022-09-26T23:55:42.604Z,68.02
2022-09-26T23:58:10.778Z,67.86
